Time;durP1;ratioP1;P1;durP2;ratioP2;P2;SDS_P1;SDS_P2;PMS_P1;PMS_P2;Temp;Humidity;BMP_temperature;BMP_pressure;BME280_temperature;BME280_humidity;BME280_pressure;Samples;Min_cycle;Max_cycle;Signal;HPM_P1;HPM_P2
2022/07/09 00:00:35;;;;;;;3.60;2.50;;;20.90;64.60;;;;;;5032200;28;21020;-70
2022/07/09 00:03:02;;;;;;;3.17;2.97;;;20.90;64.80;;;;;;5029927;28;20443;-70
2022/07/09 00:05:28;;;;;;;3.20;3.00;;;20.80;64.80;;;;;;5031729;28;20481;-70
2022/07/09 00:07:55;;;;;;;3.30;2.90;;;20.80;65.20;;;;;;5032070;28;20478;-70
2022/07/09 00:10:22;;;;;;;4.57;3.40;;;20.70;65.30;;;;;;5035407;28;20507;-70
2022/07/09 00:12:49;;;;;;;6.90;3.03;;;20.70;65.50;;;;;;5037430;28;20456;-70
2022/07/09 00:15:17;;;;;;;4.07;3.17;;;20.70;65.70;;;;;;5029563;28;20487;-70
2022/07/09 00:17:44;;;;;;;3.50;3.30;;;20.60;65.70;;;;;;5032548;28;20449;-70
2022/07/09 00:20:11;;;;;;;4.43;2.93;;;20.60;66.00;;;;;;5032901;28;20479;-70
2022/07/09 00:22:38;;;;;;;3.77;3.37;;;20.60;66.20;;;;;;5032799;28;20444;-70
2022/07/09 00:25:06;;;;;;;3.37;2.40;;;20.60;66.30;;;;;;5032469;28;20836;-70
2022/07/09 00:27:32;;;;;;;3.77;3.40;;;20.50;66.30;;;;;;5032378;28;20428;-70
2022/07/09 00:29:59;;;;;;;3.07;2.87;;;20.50;66.50;;;;;;5032120;28;20454;-70
2022/07/09 00:32:27;;;;;;;2.97;2.77;;;20.50;66.70;;;;;;5032204;28;20448;-70
2022/07/09 00:34:54;;;;;;;3.33;2.90;;;20.40;66.70;;;;;;5032076;28;20546;-70
2022/07/09 00:37:20;;;;;;;3.40;3.10;;;20.40;67.10;;;;;;5032592;28;20447;-70
2022/07/09 00:39:47;;;;;;;4.40;2.67;;;20.30;67.10;;;;;;5031852;28;20475;-70
2022/07/09 00:42:14;;;;;;;3.90;2.97;;;20.30;67.30;;;;;;5032511;28;20534;-70
2022/07/09 00:44:41;;;;;;;3.43;2.93;;;20.20;67.30;;;;;;5005091;28;20498;-70
2022/07/09 00:47:08;;;;;;;3.33;3.00;;;20.20;67.50;;;;;;5012248;28;20451;-70
2022/07/09 00:49:39;;;;;;;6.13;3.00;;;20.20;67.60;;;;;;5011556;28;20444;-70
2022/07/09 00:52:07;;;;;;;4.30;3.40;;;20.10;67.80;;;;;;5004064;28;20437;-70
2022/07/09 00:54:36;;;;;;;5.83;3.40;;;20.10;68.00;;;;;;5004380;28;20476;-70
2022/07/09 00:57:06;;;;;;;3.50;2.87;;;20.10;68.20;;;;;;5009381;28;20448;-70
2022/07/09 00:59:34;;;;;;;3.40;3.10;;;20.10;68.30;;;;;;5010124;28;20502;-70
2022/07/09 01:02:02;;;;;;;3.97;3.05;;;20.00;68.30;;;;;;5010186;28;20820;-70
2022/07/09 01:04:29;;;;;;;3.70;2.80;;;20.00;68.30;;;;;;5007163;28;20227;-70
2022/07/09 01:06:57;;;;;;;3.20;2.90;;;20.00;68.50;;;;;;5008459;28;20447;-70
2022/07/09 01:09:24;;;;;;;7.73;3.00;;;20.00;68.50;;;;;;5011103;28;20503;-70
2022/07/09 01:11:51;;;;;;;4.50;3.03;;;19.90;68.60;;;;;;5011923;28;20462;-70
2022/07/09 01:14:18;;;;;;;3.53;3.23;;;19.90;68.70;;;;;;5011269;28;20474;-70
2022/07/09 01:16:45;;;;;;;3.87;2.90;;;19.90;68.80;;;;;;5009598;28;20459;-70
2022/07/09 01:19:12;;;;;;;6.87;3.30;;;19.90;68.90;;;;;;5012388;28;20458;-70
2022/07/09 01:21:40;;;;;;;5.43;3.33;;;19.80;68.90;;;;;;5014104;28;20483;-70
2022/07/09 01:24:07;;;;;;;5.40;3.63;;;19.80;70.00;;;;;;5014398;28;20472;-70
2022/07/09 01:26:37;;;;;;;3.97;3.00;;;19.80;69.30;;;;;;5015215;28;20515;-70
2022/07/09 01:29:04;;;;;;;6.27;3.10;;;19.80;69.50;;;;;;5014542;28;20528;-70
2022/07/09 01:31:30;;;;;;;5.47;3.30;;;19.70;69.50;;;;;;5014583;28;20455;-70
2022/07/09 01:33:57;;;;;;;8.20;3.00;;;19.70;69.70;;;;;;5014996;28;20464;-70
2022/07/09 01:36:24;;;;;;;6.17;3.10;;;19.70;70.10;;;;;;5015054;28;20873;-70
2022/07/09 01:38:53;;;;;;;7.30;3.17;;;19.70;70.20;;;;;;5014488;28;20456;-70
2022/07/09 01:41:20;;;;;;;8.43;4.03;;;19.70;70.30;;;;;;5012975;28;20847;-70
2022/07/09 01:43:46;;;;;;;5.50;3.73;;;19.70;70.60;;;;;;5014499;28;20479;-70
2022/07/09 01:46:13;;;;;;;5.57;3.40;;;19.60;70.80;;;;;;5014656;28;20448;-71
2022/07/09 01:48:42;;;;;;;7.40;3.20;;;19.60;71.10;;;;;;5014998;28;20448;-70
2022/07/09 01:51:08;;;;;;;7.23;4.20;;;19.60;71.30;;;;;;5014500;28;20454;-70
2022/07/09 01:53:35;;;;;;;4.40;3.27;;;19.60;71.50;;;;;;5014573;28;20507;-70
2022/07/09 01:56:07;;;;;;;7.77;3.20;;;19.50;71.60;;;;;;5014169;28;20480;-70
2022/07/09 01:58:34;;;;;;;5.07;3.33;;;19.50;72.10;;;;;;5014425;28;20433;-70
2022/07/09 02:01:01;;;;;;;4.63;3.57;;;19.40;72.20;;;;;;5013613;28;20495;-70
2022/07/09 02:03:28;;;;;;;10.27;4.90;;;19.40;72.50;;;;;;5013966;28;20467;-70
2022/07/09 02:05:55;;;;;;;6.30;4.13;;;19.40;72.70;;;;;;5014447;28;20449;-70
2022/07/09 02:08:22;;;;;;;4.70;4.07;;;19.40;72.90;;;;;;5013911;28;20458;-70
2022/07/09 02:10:49;;;;;;;4.30;3.47;;;19.30;73.00;;;;;;5014255;28;20444;-70
2022/07/09 02:13:19;;;;;;;6.60;3.63;;;19.30;73.10;;;;;;5013664;28;20539;-70
2022/07/09 02:15:46;;;;;;;8.63;4.10;;;19.30;73.30;;;;;;5014385;28;20496;-70
2022/07/09 02:18:13;;;;;;;9.97;3.80;;;19.20;73.70;;;;;;5014753;28;20461;-70
2022/07/09 02:20:40;;;;;;;7.40;3.60;;;19.20;74.30;;;;;;5013956;28;20511;-70
2022/07/09 02:23:07;;;;;;;10.47;4.40;;;19.10;74.50;;;;;;5015016;28;20448;-70
2022/07/09 02:25:34;;;;;;;7.03;4.00;;;19.00;74.90;;;;;;5014284;28;20532;-70
2022/07/09 02:28:01;;;;;;;9.87;5.30;;;19.00;75.10;;;;;;5014544;28;20448;-70
2022/07/09 02:30:29;;;;;;;4.77;4.37;;;18.90;75.20;;;;;;5013431;28;20440;-70
2022/07/09 02:32:56;;;;;;;5.47;4.90;;;18.90;75.40;;;;;;5012094;28;20458;-70
2022/07/09 02:35:23;;;;;;;6.30;4.13;;;19.00;75.40;;;;;;5014622;28;20510;-70
2022/07/09 02:37:50;;;;;;;4.87;4.37;;;19.00;75.40;;;;;;5015226;28;20512;-70
2022/07/09 02:40:16;;;;;;;6.00;4.50;;;19.00;75.50;;;;;;5013017;28;20491;-70
2022/07/09 02:42:44;;;;;;;10.30;4.60;;;19.00;75.70;;;;;;5012976;28;20448;-70
2022/07/09 02:45:11;;;;;;;7.40;5.00;;;18.90;75.60;;;;;;5012577;28;20484;-70
2022/07/09 02:47:39;;;;;;;5.30;4.40;;;19.00;75.70;;;;;;5012528;28;20436;-70
2022/07/09 02:50:07;;;;;;;9.47;5.50;;;19.00;75.70;;;;;;5011748;28;20440;-70
2022/07/09 02:52:34;;;;;;;7.73;5.20;;;18.90;75.50;;;;;;5011822;28;20448;-70
2022/07/09 02:55:01;;;;;;;7.10;4.87;;;18.90;75.60;;;;;;5012484;28;20503;-70
2022/07/09 02:57:27;;;;;;;6.00;4.37;;;19.00;75.60;;;;;;5011987;28;20448;-70
2022/07/09 02:59:54;;;;;;;9.33;4.30;;;19.00;75.60;;;;;;5012420;28;20454;-70
2022/07/09 03:02:21;;;;;;;5.60;5.10;;;19.00;75.60;;;;;;5012106;28;20449;-70
2022/07/09 03:04:51;;;;;;;6.07;4.40;;;18.90;75.70;;;;;;5013094;28;20470;-70
2022/07/09 03:07:19;;;;;;;7.30;5.53;;;18.90;75.70;;;;;;5013359;28;20432;-70
2022/07/09 03:09:46;;;;;;;6.73;5.17;;;18.90;75.90;;;;;;5011576;28;20448;-70
2022/07/09 03:12:13;;;;;;;4.60;4.30;;;18.90;76.10;;;;;;5012586;28;20448;-70
2022/07/09 03:14:39;;;;;;;5.77;5.27;;;18.80;76.10;;;;;;5012327;28;20544;-70
2022/07/09 03:17:06;;;;;;;6.27;5.67;;;18.80;76.30;;;;;;5008494;28;20447;-70
2022/07/09 03:19:33;;;;;;;9.87;6.07;;;18.80;76.30;;;;;;5005915;28;20516;-70
2022/07/09 03:22:01;;;;;;;6.17;5.57;;;18.80;76.50;;;;;;5009367;28;20503;-70
2022/07/09 03:24:28;;;;;;;5.03;4.60;;;18.70;76.40;;;;;;5010028;28;20468;-70
2022/07/09 03:26:55;;;;;;;7.53;5.90;;;18.70;76.40;;;;;;5011589;28;20458;-70
2022/07/09 03:29:24;;;;;;;7.60;5.60;;;18.80;76.50;;;;;;5010507;28;20451;-70
2022/07/09 03:31:50;;;;;;;6.07;5.57;;;18.80;77.00;;;;;;5011281;28;20428;-70
2022/07/09 03:34:17;;;;;;;6.73;6.10;;;18.70;77.10;;;;;;5010831;28;20474;-70
2022/07/09 03:36:44;;;;;;;7.23;5.33;;;18.70;77.10;;;;;;5010844;28;20444;-70
2022/07/09 03:39:12;;;;;;;8.30;7.40;;;18.70;77.10;;;;;;5011159;28;20456;-70
2022/07/09 03:41:39;;;;;;;7.23;6.50;;;18.70;77.20;;;;;;5009952;28;20479;-70
2022/07/09 03:44:05;;;;;;;7.03;6.37;;;18.70;77.70;;;;;;5009874;28;20500;-70
2022/07/09 03:46:32;;;;;;;5.53;5.10;;;18.70;77.80;;;;;;5011008;28;20466;-70
2022/07/09 03:48:59;;;;;;;6.50;5.97;;;18.60;77.60;;;;;;5010784;28;20459;-70
2022/07/09 03:51:29;;;;;;;8.20;5.93;;;18.60;77.80;;;;;;5010081;28;20456;-70
2022/07/09 03:53:56;;;;;;;6.37;5.77;;;18.60;77.90;;;;;;5009934;28;20468;-70
2022/07/09 03:56:24;;;;;;;6.70;5.87;;;18.60;78.10;;;;;;5010210;28;20429;-70
2022/07/09 03:58:51;;;;;;;6.33;5.70;;;18.60;78.10;;;;;;5009864;28;20517;-70
2022/07/09 04:01:19;;;;;;;6.23;5.73;;;18.60;78.10;;;;;;5010534;28;20576;-70
2022/07/09 04:03:46;;;;;;;9.73;5.87;;;18.60;78.20;;;;;;5009052;28;20480;-70
2022/07/09 04:06:13;;;;;;;6.33;5.70;;;18.60;78.20;;;;;;5010682;28;20452;-70
2022/07/09 04:08:40;;;;;;;6.13;5.53;;;18.60;78.20;;;;;;5010718;28;20448;-70
2022/07/09 04:11:07;;;;;;;6.20;5.60;;;18.60;78.20;;;;;;5011232;28;20459;-70
2022/07/09 04:13:35;;;;;;;6.30;5.80;;;18.60;78.30;;;;;;5010040;28;20472;-70
2022/07/09 04:16:02;;;;;;;7.20;6.40;;;18.60;78.40;;;;;;5009448;28;20451;-70
2022/07/09 04:18:29;;;;;;;6.97;6.30;;;18.50;78.60;;;;;;5008945;28;20456;-70
2022/07/09 04:20:57;;;;;;;8.50;5.93;;;18.50;78.90;;;;;;5008922;28;20491;-70
2022/07/09 04:23:23;;;;;;;8.00;7.20;;;18.60;79.10;;;;;;5008812;28;20456;-70
2022/07/09 04:25:50;;;;;;;8.30;7.50;;;18.50;79.30;;;;;;5008667;28;20444;-70
2022/07/09 04:28:18;;;;;;;9.23;6.73;;;18.50;79.40;;;;;;5009344;28;20467;-70
2022/07/09 04:30:46;;;;;;;8.60;7.03;;;18.60;79.80;;;;;;4992383;28;20999;-70
2022/07/09 04:33:13;;;;;;;8.27;7.47;;;18.50;80.10;;;;;;5009124;28;20516;-70
2022/07/09 04:35:40;;;;;;;9.47;8.57;;;18.50;80.30;;;;;;5009698;28;20512;-70
2022/07/09 04:38:07;;;;;;;9.73;8.90;;;18.50;81.10;;;;;;5009750;28;20528;-70
2022/07/09 04:40:34;;;;;;;10.30;9.17;;;18.60;81.80;;;;;;5009809;28;20459;-70
2022/07/09 04:43:00;;;;;;;9.60;8.60;;;18.50;82.70;;;;;;5009750;28;20457;-70
2022/07/09 04:45:29;;;;;;;10.03;9.03;;;18.50;83.30;;;;;;5009931;28;20476;-70
2022/07/09 04:47:57;;;;;;;11.00;10.00;;;18.60;83.80;;;;;;5010498;28;20475;-70
2022/07/09 04:50:24;;;;;;;9.87;9.07;;;18.60;84.30;;;;;;5009972;28;20444;-70
2022/07/09 04:52:51;;;;;;;10.53;9.63;;;18.60;84.60;;;;;;5009405;28;20453;-70
2022/07/09 04:55:18;;;;;;;11.07;10.13;;;18.60;84.90;;;;;;5009027;28;20472;-70
2022/07/09 04:57:45;;;;;;;11.80;10.60;;;18.70;85.70;;;;;;5008726;28;20448;-70
2022/07/09 05:00:15;;;;;;;12.17;11.00;;;18.70;86.40;;;;;;5009356;28;20460;-70
2022/07/09 05:02:42;;;;;;;11.93;10.93;;;18.60;86.60;;;;;;5009397;28;20846;-70
2022/07/09 05:05:11;;;;;;;12.30;11.00;;;18.70;86.90;;;;;;5010270;28;20464;-70
2022/07/09 05:07:38;;;;;;;12.63;10.73;;;18.70;87.60;;;;;;5011200;28;20475;-70
2022/07/09 05:10:06;;;;;;;12.37;11.10;;;18.70;88.70;;;;;;5010501;28;20524;-71
2022/07/09 05:12:33;;;;;;;14.33;10.97;;;18.70;89.50;;;;;;5010016;28;20840;-70
2022/07/09 05:14:59;;;;;;;11.87;10.83;;;18.70;89.40;;;;;;5009545;28;20460;-70
2022/07/09 05:17:26;;;;;;;14.17;12.50;;;18.80;89.90;;;;;;5010922;28;20440;-70
2022/07/09 05:19:53;;;;;;;14.90;13.50;;;18.80;90.00;;;;;;5012011;28;20839;-70
2022/07/09 05:22:22;;;;;;;16.70;13.87;;;18.80;90.20;;;;;;5010646;28;20488;-70
2022/07/09 05:24:49;;;;;;;15.17;13.70;;;18.80;90.50;;;;;;5010420;28;20480;-70
2022/07/09 05:27:16;;;;;;;16.03;14.53;;;18.80;90.70;;;;;;5011547;28;20451;-71
2022/07/09 05:29:43;;;;;;;16.80;15.20;;;18.90;91.10;;;;;;5011205;28;20432;-71
2022/07/09 05:32:09;;;;;;;17.13;14.97;;;18.90;91.30;;;;;;5014354;28;20516;-71
2022/07/09 05:34:36;;;;;;;17.93;16.33;;;18.90;91.70;;;;;;5012896;28;20464;-71
2022/07/09 05:37:03;;;;;;;17.20;15.07;;;18.90;92.00;;;;;;5011921;28;20456;-71
2022/07/09 05:39:31;;;;;;;15.00;13.80;;;18.90;92.10;;;;;;5011132;28;20448;-70
2022/07/09 05:41:58;;;;;;;16.87;15.30;;;18.90;91.90;;;;;;5011488;28;20527;-70
2022/07/09 05:44:25;;;;;;;17.43;15.73;;;19.00;92.10;;;;;;5010627;28;20495;-71
2022/07/09 05:46:52;;;;;;;16.60;14.93;;;19.10;92.20;;;;;;5011784;28;20454;-71
2022/07/09 05:49:19;;;;;;;16.57;15.03;;;19.10;92.20;;;;;;5011107;28;20453;-71
2022/07/09 05:51:46;;;;;;;15.13;13.70;;;19.10;92.30;;;;;;5011772;28;20450;-71
2022/07/09 05:54:13;;;;;;;16.87;15.20;;;19.20;92.40;;;;;;5011531;28;20535;-71
2022/07/09 05:56:41;;;;;;;18.53;15.30;;;19.30;92.80;;;;;;5011063;28;20444;-71
2022/07/09 05:59:08;;;;;;;16.53;15.00;;;19.30;92.50;;;;;;5011136;28;20479;-70
2022/07/09 06:01:39;;;;;;;23.10;15.87;;;19.40;92.60;;;;;;5010162;28;20476;-70
2022/07/09 06:04:07;;;;;;;16.87;14.70;;;19.50;92.50;;;;;;5011185;28;20994;-71
2022/07/09 06:06:34;;;;;;;15.67;14.20;;;19.50;92.30;;;;;;5013474;28;20459;-71
2022/07/09 06:09:01;;;;;;;17.43;15.63;;;19.60;92.30;;;;;;5014160;28;20448;-71
2022/07/09 06:11:28;;;;;;;15.03;13.47;;;19.70;92.30;;;;;;5014743;28;20440;-71
2022/07/09 06:13:56;;;;;;;15.87;14.37;;;19.70;92.20;;;;;;5014463;28;20501;-71
2022/07/09 06:16:23;;;;;;;13.27;12.07;;;19.90;91.90;;;;;;4997352;28;20506;-71
2022/07/09 06:18:50;;;;;;;14.80;13.03;;;20.00;91.70;;;;;;5014460;28;20450;-71
2022/07/09 06:21:17;;;;;;;13.73;11.93;;;20.10;91.60;;;;;;5014550;28;20496;-71
2022/07/09 06:23:43;;;;;;;11.60;10.40;;;20.20;91.30;;;;;;5014449;28;20456;-71
2022/07/09 06:26:10;;;;;;;12.00;10.80;;;20.30;91.00;;;;;;5014920;28;20452;-71
2022/07/09 06:28:37;;;;;;;11.67;10.30;;;20.40;90.80;;;;;;5014754;28;20440;-71
2022/07/09 06:31:06;;;;;;;10.67;9.80;;;20.50;90.40;;;;;;5015098;28;20448;-71
2022/07/09 06:33:33;;;;;;;11.30;10.13;;;20.60;90.20;;;;;;5015672;28;20468;-71
2022/07/09 06:36:00;;;;;;;9.27;7.10;;;20.70;90.00;;;;;;5016187;28;20454;-71
2022/07/09 06:38:29;;;;;;;7.03;6.07;;;20.80;89.20;;;;;;5015339;28;20491;-71
2022/07/09 06:40:57;;;;;;;7.77;5.63;;;20.90;87.30;;;;;;5015721;28;20460;-71
2022/07/09 06:43:24;;;;;;;7.27;6.20;;;21.00;86.70;;;;;;5011065;28;20527;-71
2022/07/09 06:45:52;;;;;;;6.37;5.33;;;21.00;86.20;;;;;;5010811;28;20461;-71
2022/07/09 06:48:20;;;;;;;7.83;6.73;;;21.20;86.40;;;;;;5015453;28;20456;-72
2022/07/09 06:50:47;;;;;;;7.63;5.63;;;21.30;84.40;;;;;;5014894;28;20440;-71
2022/07/09 06:53:14;;;;;;;5.00;4.50;;;21.50;83.10;;;;;;5015068;28;20436;-71
2022/07/09 06:55:40;;;;;;;8.53;4.10;;;21.60;83.60;;;;;;5014005;28;20528;-72
2022/07/09 06:58:07;;;;;;;7.20;3.77;;;21.70;83.50;;;;;;5015223;28;20447;-72
2022/07/09 07:00:34;;;;;;;4.63;4.27;;;21.90;82.20;;;;;;5014853;28;20440;-72
2022/07/09 07:03:01;;;;;;;5.95;5.00;;;22.10;80.90;;;;;;5013488;28;20527;-71
2022/07/09 07:05:29;;;;;;;7.13;5.30;;;22.20;81.30;;;;;;5015022;28;20229;-72
2022/07/09 07:07:56;;;;;;;5.47;4.93;;;22.30;79.10;;;;;;5015562;28;20455;-72
2022/07/09 07:10:23;;;;;;;4.70;4.00;;;22.40;79.30;;;;;;5014056;28;20456;-72
2022/07/09 07:12:50;;;;;;;7.20;3.83;;;22.60;78.30;;;;;;5013778;28;20447;-72
2022/07/09 07:15:17;;;;;;;3.93;3.50;;;22.70;78.50;;;;;;5016389;28;20487;-72
2022/07/09 07:17:43;;;;;;;5.27;4.50;;;22.70;77.80;;;;;;5018302;28;20471;-72
2022/07/09 07:20:12;;;;;;;4.90;4.10;;;22.80;77.20;;;;;;5013910;28;20444;-72
2022/07/09 07:22:40;;;;;;;3.77;3.47;;;22.90;76.50;;;;;;5014834;28;20311;-72
2022/07/09 07:25:08;;;;;;;3.33;3.00;;;23.00;77.00;;;;;;5014739;28;20472;-71
2022/07/09 07:27:35;;;;;;;3.90;3.50;;;23.10;76.00;;;;;;5014752;28;20452;-72
2022/07/09 07:30:01;;;;;;;5.03;3.40;;;23.20;76.00;;;;;;5014775;28;20375;-72
2022/07/09 07:32:28;;;;;;;4.30;2.83;;;23.30;76.30;;;;;;5014454;28;20531;-72
2022/07/09 07:34:55;;;;;;;4.53;3.03;;;23.40;75.50;;;;;;5013742;28;20472;-72
2022/07/09 07:37:22;;;;;;;3.60;3.03;;;23.30;72.90;;;;;;5014850;28;20508;-72
2022/07/09 07:39:50;;;;;;;5.93;3.07;;;23.30;72.90;;;;;;5014878;28;20524;-72
2022/07/09 07:42:16;;;;;;;4.03;3.10;;;23.30;72.80;;;;;;5015019;28;20498;-73
2022/07/09 07:44:43;;;;;;;5.47;2.80;;;23.40;72.70;;;;;;5014246;28;20482;-73
2022/07/09 07:47:10;;;;;;;7.93;3.30;;;23.40;74.50;;;;;;5014169;28;20515;-73
2022/07/09 07:49:37;;;;;;;3.00;2.30;;;23.60;73.70;;;;;;5015433;28;20458;-73
2022/07/09 07:52:04;;;;;;;3.13;2.57;;;23.80;71.20;;;;;;5015036;28;20468;-73
2022/07/09 07:54:30;;;;;;;2.73;2.53;;;24.00;72.10;;;;;;5014271;28;20472;-73
2022/07/09 07:56:59;;;;;;;2.20;1.73;;;24.20;70.20;;;;;;5014764;28;20453;-73
2022/07/09 07:59:25;;;;;;;2.43;2.13;;;24.50;70.20;;;;;;5014523;28;20500;-73
2022/07/09 08:01:52;;;;;;;3.13;2.93;;;24.70;68.70;;;;;;5014187;28;20491;-73
2022/07/09 08:04:19;;;;;;;2.50;2.03;;;24.90;67.20;;;;;;5011855;28;20917;-72
2022/07/09 08:06:46;;;;;;;2.20;2.00;;;25.10;65.80;;;;;;5012571;28;20443;-72
2022/07/09 08:09:13;;;;;;;3.00;2.10;;;25.30;64.10;;;;;;5012230;28;20434;-72
2022/07/09 08:11:39;;;;;;;1.70;1.60;;;25.50;63.60;;;;;;4994420;28;20445;-72
2022/07/09 08:14:08;;;;;;;2.50;1.97;;;25.80;63.40;;;;;;5009896;28;20468;-72
2022/07/09 08:16:36;;;;;;;1.10;1.10;;;26.20;61.50;;;;;;5012146;28;20472;-72
2022/07/09 08:19:02;;;;;;;1.70;1.33;;;26.60;59.10;;;;;;5011821;28;20461;-73
2022/07/09 08:21:29;;;;;;;2.33;0.93;;;26.80;57.90;;;;;;5009220;28;20452;-72
2022/07/09 08:23:56;;;;;;;1.70;1.13;;;26.90;56.00;;;;;;5010869;28;20479;-72
2022/07/09 08:26:25;;;;;;;1.40;1.13;;;27.00;55.60;;;;;;4994844;28;20476;-73
2022/07/09 08:28:52;;;;;;;0.97;0.73;;;27.00;54.80;;;;;;5012422;28;20829;-73
2022/07/09 08:31:22;;;;;;;1.17;1.07;;;27.00;54.10;;;;;;5009736;28;20507;-76
2022/07/09 08:33:50;;;;;;;1.03;1.03;;;27.10;54.50;;;;;;4997130;28;20507;-71
2022/07/09 08:36:17;;;;;;;1.23;1.10;;;27.20;52.90;;;;;;5009292;28;20457;-72
2022/07/09 08:38:44;;;;;;;1.93;1.00;;;27.20;52.50;;;;;;4993003;28;20462;-71
2022/07/09 08:41:13;;;;;;;1.33;1.23;;;27.30;53.30;;;;;;5010206;28;20516;-72
2022/07/09 08:43:40;;;;;;;1.07;0.87;;;27.70;54.20;;;;;;5008305;28;20498;-71
2022/07/09 08:46:07;;;;;;;1.47;1.37;;;28.10;53.80;;;;;;5011187;28;20515;-72
2022/07/09 08:48:36;;;;;;;1.27;1.20;;;28.50;51.60;;;;;;5011631;28;20459;-73
2022/07/09 08:51:04;;;;;;;1.27;0.97;;;28.70;49.90;;;;;;5013246;28;20452;-73
2022/07/09 08:53:31;;;;;;;1.83;1.10;;;28.90;49.60;;;;;;5013096;28;20460;-74
2022/07/09 08:55:59;;;;;;;1.50;0.80;;;29.30;48.20;;;;;;5013187;28;20448;-74
2022/07/09 08:58:27;;;;;;;2.40;1.00;;;29.50;46.80;;;;;;5012903;28;20865;-74
2022/07/09 09:00:54;;;;;;;2.00;1.00;;;29.80;47.00;;;;;;5012252;28;20524;-74
2022/07/09 09:03:21;;;;;;;1.10;0.90;;;29.90;45.60;;;;;;5012197;28;20562;-72
2022/07/09 09:06:03;;;;;;;2.90;0.70;;;30.00;45.10;;;;;;5008667;28;20457;-70
2022/07/09 09:08:36;;;;;;;1.40;0.90;;;30.20;45.40;;;;;;5003920;28;20436;-71
2022/07/09 09:11:03;;;;;;;1.77;1.00;;;30.10;43.00;;;;;;4995234;28;20433;-71
2022/07/09 09:13:30;;;;;;;0.70;0.60;;;30.00;44.30;;;;;;5007792;28;20928;-69
2022/07/09 09:16:07;;;;;;;3.27;1.00;;;29.90;45.00;;;;;;5010309;28;20201;-70
2022/07/09 09:18:36;;;;;;;2.30;1.00;;;29.80;44.00;;;;;;5011274;28;20439;-70
2022/07/09 09:21:06;;;;;;;0.93;0.80;;;29.60;43.10;;;;;;5010164;28;20451;-70
2022/07/09 09:23:41;;;;;;;1.20;0.90;;;29.50;44.50;;;;;;5008935;28;20492;-69
2022/07/09 09:26:15;;;;;;;3.10;0.80;;;29.50;44.20;;;;;;5007758;28;20424;-70
2022/07/09 09:28:49;;;;;;;0.70;0.70;;;29.70;44.80;;;;;;5006708;28;20452;-71
2022/07/09 09:31:24;;;;;;;5.33;1.30;;;29.80;44.90;;;;;;5006711;28;20455;-70
2022/07/09 09:33:52;;;;;;;1.83;1.10;;;29.90;44.80;;;;;;5008590;28;20463;-70
2022/07/09 09:36:34;;;;;;;3.60;1.20;;;29.90;42.30;;;;;;5006973;28;20462;-70
2022/07/09 09:39:19;;;;;;;3.50;1.10;;;30.10;42.80;;;;;;5008709;28;20443;-70
2022/07/09 09:41:47;;;;;;;2.63;1.40;;;30.30;42.70;;;;;;5013070;28;20814;-71
2022/07/09 09:44:15;;;;;;;1.83;1.00;;;30.30;40.50;;;;;;5010350;28;20506;-70
2022/07/09 09:46:44;;;;;;;2.00;1.27;;;30.10;42.00;;;;;;5011398;28;20454;-70
2022/07/09 09:49:14;;;;;;;2.83;1.33;;;30.10;41.60;;;;;;5011161;28;20456;-70
2022/07/09 09:51:51;;;;;;;1.03;0.90;;;30.10;42.80;;;;;;5009011;28;20531;-70
2022/07/09 09:54:20;;;;;;;1.80;1.00;;;30.00;41.60;;;;;;5009201;28;20460;-70
2022/07/09 09:56:47;;;;;;;2.60;1.10;;;29.90;42.70;;;;;;5009151;28;20448;-70
2022/07/09 09:59:15;;;;;;;1.20;1.10;;;29.90;43.60;;;;;;5009863;28;20425;-70
2022/07/09 10:01:43;;;;;;;3.17;1.30;;;29.80;42.00;;;;;;5011112;28;20951;-70
2022/07/09 10:04:11;;;;;;;1.67;0.93;;;29.80;43.30;;;;;;5010679;28;20563;-70
2022/07/09 10:06:38;;;;;;;2.70;1.43;;;29.80;41.70;;;;;;5010481;28;20450;-70
2022/07/09 10:09:08;;;;;;;2.60;1.33;;;29.90;42.80;;;;;;5008319;28;20456;-70
2022/07/09 10:11:42;;;;;;;2.60;1.50;;;29.90;41.30;;;;;;5004817;28;20444;-70
2022/07/09 10:14:16;;;;;;;1.00;1.00;;;30.10;41.90;;;;;;5007656;28;20467;-71
2022/07/09 10:16:46;;;;;;;3.90;1.47;;;30.20;40.90;;;;;;5010176;28;20464;-72
2022/07/09 10:19:24;;;;;;;3.17;1.43;;;30.40;41.00;;;;;;5007839;28;20448;-70
2022/07/09 10:21:53;;;;;;;1.70;1.37;;;30.60;40.40;;;;;;5005214;28;20436;-70
2022/07/09 10:24:30;;;;;;;2.27;2.07;;;30.90;42.00;;;;;;5008261;28;20516;-69
2022/07/09 10:27:07;;;;;;;2.23;2.00;;;31.10;39.50;;;;;;5006094;28;20912;-71
2022/07/09 10:29:36;;;;;;;2.10;1.60;;;31.20;41.00;;;;;;5007660;28;20444;-70
2022/07/09 10:32:04;;;;;;;3.33;1.20;;;31.40;41.60;;;;;;5008260;28;20447;-71
2022/07/09 10:34:55;;;;;;;1.27;1.17;;;31.60;39.40;;;;;;5007007;28;20472;-69
2022/07/09 10:37:31;;;;;;;2.50;1.47;;;31.60;38.90;;;;;;5006242;28;20536;-69
2022/07/09 10:40:09;;;;;;;2.50;1.47;;;31.30;38.80;;;;;;5005307;28;20479;-70
2022/07/09 10:42:36;;;;;;;2.70;1.60;;;31.30;39.80;;;;;;5004671;28;20471;-70
2022/07/09 10:45:04;;;;;;;2.27;1.20;;;31.30;40.20;;;;;;5007260;28;20472;-70
2022/07/09 10:47:38;;;;;;;2.63;1.40;;;31.20;40.00;;;;;;4991631;28;20452;-69
2022/07/09 10:50:05;;;;;;;2.50;1.93;;;30.90;38.80;;;;;;5006891;28;20455;-71
2022/07/09 10:52:32;;;;;;;2.83;2.40;;;30.70;40.30;;;;;;5004912;28;20456;-71
2022/07/09 10:54:59;;;;;;;2.90;2.30;;;30.30;39.80;;;;;;5006973;28;20478;-71
2022/07/09 10:57:28;;;;;;;2.33;2.00;;;29.80;41.10;;;;;;5006977;28;20456;-70
2022/07/09 10:59:54;;;;;;;1.80;1.70;;;30.20;42.00;;;;;;5009720;28;20452;-70
2022/07/09 11:02:22;;;;;;;2.60;1.20;;;31.00;40.10;;;;;;5010371;28;20448;-70
2022/07/09 11:04:50;;;;;;;1.83;1.70;;;31.60;38.20;;;;;;5010241;28;20468;-70
2022/07/09 11:07:21;;;;;;;1.47;1.10;;;32.00;38.00;;;;;;5009753;28;20479;-70
2022/07/09 11:09:47;;;;;;;1.50;1.40;;;32.50;36.40;;;;;;4992282;28;20432;-70
2022/07/09 11:12:16;;;;;;;2.60;1.60;;;32.80;36.00;;;;;;5009045;28;20505;-70
2022/07/09 11:14:49;;;;;;;1.40;1.30;;;33.20;34.80;;;;;;5008268;28;21017;-70
2022/07/09 11:17:16;;;;;;;3.03;1.90;;;32.90;34.90;;;;;;5009573;28;20523;-70
2022/07/09 11:19:43;;;;;;;3.77;1.50;;;32.60;35.40;;;;;;5009171;28;20951;-70
2022/07/09 11:22:10;;;;;;;1.77;1.67;;;32.60;36.70;;;;;;5007673;28;20516;-70
2022/07/09 11:24:37;;;;;;;1.73;1.63;;;32.90;36.60;;;;;;5009180;28;20502;-70
2022/07/09 11:27:06;;;;;;;2.33;1.63;;;33.10;35.50;;;;;;5008551;28;20548;-71
2022/07/09 11:29:33;;;;;;;2.10;1.90;;;33.00;35.90;;;;;;5008189;28;20447;-70
2022/07/09 11:32:02;;;;;;;4.43;1.80;;;32.80;36.50;;;;;;5008950;28;20448;-70
2022/07/09 11:34:30;;;;;;;3.67;1.80;;;32.60;37.20;;;;;;5009289;28;20562;-71
2022/07/09 11:36:58;;;;;;;4.13;1.87;;;32.20;37.10;;;;;;5008134;28;20494;-71
2022/07/09 11:39:27;;;;;;;2.70;1.57;;;31.90;37.90;;;;;;5008393;28;20447;-70
2022/07/09 11:41:54;;;;;;;4.07;2.27;;;31.60;38.50;;;;;;5008251;28;20452;-69
2022/07/09 11:44:22;;;;;;;2.80;2.30;;;31.90;39.20;;;;;;5007948;28;20486;-70
2022/07/09 11:47:06;;;;;;;3.90;2.23;;;32.10;38.50;;;;;;5007500;28;20538;-70
2022/07/09 11:49:34;;;;;;;2.33;2.13;;;31.80;38.00;;;;;;5007981;28;20449;-70
2022/07/09 11:52:01;;;;;;;2.70;2.20;;;31.20;38.60;;;;;;5008589;28;20452;-70
2022/07/09 11:54:28;;;;;;;2.90;2.70;;;30.50;40.40;;;;;;5008644;28;20479;-70
2022/07/09 11:56:55;;;;;;;2.97;2.63;;;29.80;41.80;;;;;;5009903;28;20964;-70
2022/07/09 11:59:27;;;;;;;2.50;2.30;;;29.50;43.60;;;;;;5010562;28;20444;-71
2022/07/09 12:01:55;;;;;;;3.70;2.80;;;29.10;43.60;;;;;;5010043;28;20448;-70
2022/07/09 12:04:23;;;;;;;3.40;2.70;;;29.10;44.50;;;;;;5010024;28;20600;-70
2022/07/09 12:06:51;;;;;;;3.17;2.73;;;29.40;44.40;;;;;;5011102;28;20460;-71
2022/07/09 12:09:29;;;;;;;3.43;2.70;;;29.50;43.40;;;;;;5011419;28;20519;-71
2022/07/09 12:11:56;;;;;;;3.40;2.80;;;29.30;43.80;;;;;;4996092;28;20437;-70
2022/07/09 12:14:23;;;;;;;2.93;2.47;;;29.10;44.10;;;;;;5012664;28;20460;-70
2022/07/09 12:16:50;;;;;;;5.87;2.80;;;28.80;45.10;;;;;;5013109;28;20463;-70
2022/07/09 12:19:17;;;;;;;3.70;2.77;;;28.40;45.10;;;;;;5012172;28;20441;-70
2022/07/09 12:21:45;;;;;;;4.40;2.80;;;28.10;45.80;;;;;;5010948;28;20523;-70
2022/07/09 12:24:13;;;;;;;3.50;2.80;;;27.70;47.20;;;;;;5010031;28;20582;-70
2022/07/09 12:26:40;;;;;;;3.60;2.87;;;27.30;47.90;;;;;;5012918;28;20491;-70
2022/07/09 12:29:07;;;;;;;3.20;2.83;;;27.00;48.80;;;;;;4996251;28;20963;-71
2022/07/09 12:31:36;;;;;;;6.63;3.73;;;26.80;49.70;;;;;;4999743;28;20471;-70
2022/07/09 12:34:04;;;;;;;4.70;4.30;;;26.40;50.50;;;;;;5009902;28;20567;-71
2022/07/09 12:36:30;;;;;;;4.27;3.90;;;26.10;51.80;;;;;;5009768;28;20432;-71
2022/07/09 12:38:59;;;;;;;4.63;4.20;;;25.90;53.50;;;;;;5009445;28;20443;-71
2022/07/09 12:41:26;;;;;;;5.80;5.17;;;25.50;55.20;;;;;;5008994;28;20830;-70
2022/07/09 12:43:52;;;;;;;5.93;5.40;;;25.40;57.10;;;;;;5005952;28;20499;-70
2022/07/09 12:46:20;;;;;;;6.10;5.70;;;25.30;58.20;;;;;;5005357;28;20806;-70